Time;durP1;ratioP1;P1;durP2;ratioP2;P2;SDS_P1;SDS_P2;PMS_P1;PMS_P2;Temp;Humidity;BMP_temperature;BMP_pressure;BME280_temperature;BME280_humidity;BME280_pressure;Samples;Min_cycle;Max_cycle;Signal;HPM_P1;HPM_P2
2021/12/09 00:00:28;;;;;;;28.97;18.80;;;3.90;72.30;;;;;;4968005;28;20019;-80
2021/12/09 00:02:54;;;;;;;25.57;18.13;;;3.90;72.20;;;;;;4996288;28;20033;-80
2021/12/09 00:05:20;;;;;;;23.50;17.33;;;3.90;72.20;;;;;;4982028;28;20482;-80
2021/12/09 00:07:50;;;;;;;25.37;17.70;;;3.90;72.10;;;;;;4987429;28;20525;-80
2021/12/09 00:10:16;;;;;;;23.93;15.80;;;3.80;72.10;;;;;;4988444;28;20019;-78
2021/12/09 00:12:42;;;;;;;26.30;17.33;;;3.80;72.10;;;;;;4975072;28;20402;-80
2021/12/09 00:15:08;;;;;;;23.93;17.17;;;3.80;72.30;;;;;;4984744;28;20461;-79
2021/12/09 00:17:34;;;;;;;23.20;17.83;;;3.80;72.20;;;;;;4990419;28;20023;-80
2021/12/09 00:20:00;;;;;;;26.43;17.30;;;3.80;72.20;;;;;;4977309;28;20034;-80
2021/12/09 00:22:27;;;;;;;24.67;16.97;;;3.80;72.30;;;;;;4976032;28;20090;-80
2021/12/09 00:24:53;;;;;;;23.10;16.30;;;3.80;72.30;;;;;;4994804;28;20057;-80
2021/12/09 00:27:19;;;;;;;24.10;17.93;;;3.80;72.40;;;;;;4974994;28;20072;-80
2021/12/09 00:29:44;;;;;;;23.90;16.33;;;3.80;72.50;;;;;;4976649;28;20078;-80
2021/12/09 00:32:10;;;;;;;21.97;15.40;;;3.70;72.40;;;;;;4983105;28;20371;-80
2021/12/09 00:34:38;;;;;;;21.97;16.20;;;3.80;72.60;;;;;;4962164;28;20027;-80
2021/12/09 00:37:25;;;;;;;24.63;17.30;;;3.80;72.70;;;;;;4973048;28;20064;-80
2021/12/09 00:39:53;;;;;;;28.27;18.40;;;3.80;72.50;;;;;;4971218;28;20027;-80
2021/12/09 00:42:21;;;;;;;26.30;17.63;;;3.80;72.70;;;;;;4996177;28;20095;-80
2021/12/09 00:44:48;;;;;;;26.67;17.63;;;3.80;72.80;;;;;;4996964;28;20023;-80
2021/12/09 00:47:14;;;;;;;29.57;18.77;;;3.80;72.70;;;;;;4992305;28;20477;-80
2021/12/09 00:49:39;;;;;;;26.57;18.20;;;3.90;72.60;;;;;;4986875;28;20383;-80
2021/12/09 00:52:06;;;;;;;24.73;18.33;;;3.90;72.30;;;;;;4999620;28;20035;-80
2021/12/09 00:54:32;;;;;;;30.03;18.87;;;3.90;72.20;;;;;;4991318;28;20034;-80
2021/12/09 00:56:57;;;;;;;27.13;18.20;;;3.90;72.30;;;;;;4978640;28;20038;-80
2021/12/09 00:59:23;;;;;;;23.67;16.83;;;3.80;72.40;;;;;;4982582;28;20398;-80
2021/12/09 01:01:51;;;;;;;22.60;16.13;;;3.80;72.30;;;;;;5008308;28;20018;-80
2021/12/09 01:04:17;;;;;;;23.70;15.53;;;3.80;72.30;;;;;;4977551;28;20407;-80
2021/12/09 01:06:43;;;;;;;24.13;17.47;;;3.80;72.40;;;;;;4970601;28;20046;-79
2021/12/09 01:09:09;;;;;;;26.17;16.17;;;3.80;72.30;;;;;;4981093;28;20030;-79
2021/12/09 01:11:34;;;;;;;24.67;16.10;;;3.80;72.40;;;;;;4988432;28;20018;-80
2021/12/09 01:14:00;;;;;;;20.90;15.87;;;3.80;72.60;;;;;;4988869;28;20046;-80
2021/12/09 01:16:26;;;;;;;24.57;16.60;;;3.80;72.60;;;;;;4966278;28;20069;-79
2021/12/09 01:18:52;;;;;;;22.30;16.20;;;3.80;72.50;;;;;;4994417;28;20034;-80
2021/12/09 01:21:17;;;;;;;24.80;16.37;;;3.80;72.60;;;;;;4962382;28;20034;-80
2021/12/09 01:23:43;;;;;;;26.47;17.87;;;3.80;72.50;;;;;;4990761;28;20038;-80
2021/12/09 01:26:10;;;;;;;25.73;17.23;;;3.80;72.40;;;;;;4982492;28;20061;-80
2021/12/09 01:31:36;;;;;;;21.50;15.80;;;3.70;72.30;;;;;;4967795;28;20129;-80
2021/12/09 01:34:04;;;;;;;21.63;15.83;;;3.70;72.60;;;;;;4999052;28;20042;-80
2021/12/09 01:36:32;;;;;;;23.27;16.30;;;3.70;72.60;;;;;;4982414;28;20466;-80
2021/12/09 01:38:59;;;;;;;28.43;16.93;;;3.80;72.60;;;;;;4992935;28;20085;-80
2021/12/09 01:41:25;;;;;;;27.57;16.90;;;3.70;72.80;;;;;;4971665;28;20034;-80
2021/12/09 01:43:51;;;;;;;23.37;16.10;;;3.70;72.70;;;;;;4974760;28;20018;-80
2021/12/09 01:46:22;;;;;;;21.93;16.47;;;3.80;72.70;;;;;;4980337;28;20053;-80
2021/12/09 01:48:50;;;;;;;27.40;16.97;;;3.80;72.60;;;;;;4974315;28;20084;-80
2021/12/09 01:51:17;;;;;;;23.10;15.37;;;3.80;72.50;;;;;;4984289;28;20030;-80
2021/12/09 01:53:44;;;;;;;22.93;16.73;;;3.80;72.70;;;;;;4970985;28;20109;-80
2021/12/09 01:56:13;;;;;;;27.90;19.57;;;3.80;72.60;;;;;;4971643;28;20042;-80
2021/12/09 01:58:39;;;;;;;26.33;16.63;;;3.80;72.50;;;;;;4967386;28;20031;-80
2021/12/09 02:01:06;;;;;;;27.63;18.60;;;3.80;72.50;;;;;;4974781;28;20030;-80
2021/12/09 02:03:32;;;;;;;27.83;17.33;;;3.80;72.50;;;;;;4970888;28;20074;-80
2021/12/09 02:05:58;;;;;;;23.63;16.90;;;3.80;72.80;;;;;;4969624;28;20050;-80
2021/12/09 02:08:25;;;;;;;25.57;18.70;;;3.80;72.70;;;;;;4987801;28;20081;-79
2021/12/09 02:10:51;;;;;;;24.70;17.50;;;3.80;72.70;;;;;;4988808;28;20034;-80
2021/12/09 02:13:18;;;;;;;24.93;17.80;;;3.90;72.70;;;;;;4990155;28;20089;-80
2021/12/09 02:15:44;;;;;;;27.43;18.83;;;3.90;72.60;;;;;;4973020;28;20023;-80
2021/12/09 02:18:12;;;;;;;28.63;18.37;;;3.90;72.80;;;;;;4966429;28;20030;-80
2021/12/09 02:20:40;;;;;;;26.37;18.87;;;3.90;72.80;;;;;;4967963;28;20049;-80
2021/12/09 02:23:10;;;;;;;27.90;19.93;;;3.90;72.80;;;;;;4980077;28;20470;-80
2021/12/09 02:25:39;;;;;;;27.97;18.97;;;3.90;72.70;;;;;;4973163;28;20041;-80
2021/12/09 02:28:05;;;;;;;28.33;19.60;;;3.90;72.70;;;;;;4978901;28;20159;-80
2021/12/09 02:30:31;;;;;;;24.33;16.97;;;3.90;72.70;;;;;;4991932;28;20454;-80
2021/12/09 02:32:57;;;;;;;29.00;17.47;;;3.90;72.80;;;;;;4968492;28;20117;-80
2021/12/09 02:35:22;;;;;;;25.17;18.10;;;3.90;72.70;;;;;;4987629;28;20041;-80
2021/12/09 02:37:49;;;;;;;25.03;19.00;;;3.80;72.80;;;;;;4989913;28;20026;-80
2021/12/09 02:40:16;;;;;;;25.73;17.43;;;3.80;72.90;;;;;;4987551;28;20034;-80
2021/12/09 02:42:42;;;;;;;25.93;17.13;;;3.80;72.80;;;;;;4972707;28;20451;-80
2021/12/09 02:45:10;;;;;;;23.13;17.23;;;3.80;72.90;;;;;;5006100;28;20049;-80
2021/12/09 02:47:36;;;;;;;24.87;18.27;;;3.90;73.00;;;;;;4992018;28;20469;-80
2021/12/09 02:50:04;;;;;;;24.93;18.43;;;3.90;72.90;;;;;;4965966;28;20030;-80
2021/12/09 02:52:30;;;;;;;28.40;18.00;;;3.80;72.90;;;;;;4967835;28;20026;-80
2021/12/09 02:54:57;;;;;;;26.93;17.73;;;3.90;73.00;;;;;;4980349;28;20053;-80
2021/12/09 02:57:23;;;;;;;27.57;18.00;;;3.90;72.90;;;;;;4969669;28;20505;-80
2021/12/09 02:59:49;;;;;;;25.53;16.70;;;3.90;72.90;;;;;;4985062;28;20062;-80
2021/12/09 03:02:14;;;;;;;22.87;18.07;;;3.90;72.90;;;;;;4976152;28;20442;-80
2021/12/09 03:04:46;;;;;;;21.90;17.30;;;3.90;72.80;;;;;;5000386;28;20022;-80
2021/12/09 03:07:36;;;;;;;21.92;16.58;;;3.90;72.80;;;;;;4966102;28;20029;-80
2021/12/09 03:10:20;;;;;;;24.63;15.97;;;3.90;73.00;;;;;;4981352;28;20126;-80
2021/12/09 03:12:49;;;;;;;26.23;18.97;;;3.90;73.00;;;;;;4974654;28;20110;-80
2021/12/09 03:15:16;;;;;;;26.97;18.07;;;3.90;72.90;;;;;;4987649;28;20093;-81
2021/12/09 03:17:43;;;;;;;27.17;18.13;;;3.90;72.90;;;;;;4992404;28;20019;-80
2021/12/09 03:20:12;;;;;;;27.30;19.13;;;3.90;72.90;;;;;;4989949;28;20031;-81
2021/12/09 03:22:39;;;;;;;26.03;19.10;;;3.90;72.90;;;;;;5004411;28;20031;-81
2021/12/09 03:25:08;;;;;;;25.03;18.37;;;3.90;73.10;;;;;;4969252;28;20038;-81
2021/12/09 03:27:34;;;;;;;23.50;18.90;;;4.00;73.10;;;;;;4976133;28;20029;-81
2021/12/09 03:30:00;;;;;;;27.50;19.03;;;4.00;72.90;;;;;;4999760;28;20038;-81
2021/12/09 03:32:26;;;;;;;21.93;17.20;;;4.00;72.90;;;;;;4995773;28;20071;-81
2021/12/09 03:34:52;;;;;;;25.93;18.43;;;4.00;72.90;;;;;;4995332;28;20401;-81
2021/12/09 03:37:21;;;;;;;25.53;19.23;;;4.00;73.00;;;;;;4959626;28;20379;-81
2021/12/09 03:39:48;;;;;;;30.63;19.80;;;4.00;73.10;;;;;;4992970;28;20550;-81
2021/12/09 03:42:17;;;;;;;28.67;19.40;;;4.00;73.00;;;;;;4980566;28;20035;-81
2021/12/09 03:44:45;;;;;;;26.53;19.70;;;4.00;73.10;;;;;;4975469;28;20525;-81
2021/12/09 03:47:14;;;;;;;28.33;19.33;;;3.90;73.00;;;;;;4983577;28;20470;-81
2021/12/09 03:49:42;;;;;;;26.47;19.17;;;3.90;73.10;;;;;;4985177;28;20019;-81
2021/12/09 03:52:09;;;;;;;26.43;19.83;;;4.00;73.10;;;;;;4965534;28;20027;-81
2021/12/09 03:54:35;;;;;;;32.70;21.93;;;3.90;73.00;;;;;;4979547;28;20023;-81
2021/12/09 03:57:02;;;;;;;30.47;20.77;;;3.90;73.00;;;;;;4977781;28;20049;-81
2021/12/09 03:59:28;;;;;;;30.53;20.37;;;3.90;73.20;;;;;;4980808;28;20363;-81
2021/12/09 04:01:54;;;;;;;29.60;20.40;;;3.90;73.20;;;;;;4980456;28;20038;-81
2021/12/09 04:04:21;;;;;;;29.63;20.33;;;4.00;73.30;;;;;;4978507;28;20497;-81
2021/12/09 04:06:48;;;;;;;27.10;19.33;;;4.00;73.20;;;;;;4998105;28;20439;-81
2021/12/09 04:09:18;;;;;;;31.33;19.97;;;4.00;73.10;;;;;;4973406;28;20461;-81
2021/12/09 04:11:43;;;;;;;27.30;19.57;;;3.90;73.10;;;;;;4975741;28;20034;-81
2021/12/09 04:14:09;;;;;;;28.47;19.63;;;3.90;73.40;;;;;;4975634;28;20034;-81
2021/12/09 04:16:36;;;;;;;26.40;19.77;;;4.00;73.40;;;;;;4993533;28;20037;-80
2021/12/09 04:19:04;;;;;;;29.70;19.87;;;4.00;73.30;;;;;;4981706;28;20178;-81
2021/12/09 04:21:29;;;;;;;29.33;21.23;;;4.00;73.20;;;;;;4975468;28;20485;-81
2021/12/09 04:23:55;;;;;;;28.20;21.43;;;3.90;73.20;;;;;;4974808;28;20022;-81
2021/12/09 04:26:21;;;;;;;24.77;19.00;;;3.90;73.40;;;;;;4972943;28;20027;-81
2021/12/09 04:28:47;;;;;;;27.00;20.13;;;3.90;73.40;;;;;;4970663;28;20514;-81
2021/12/09 04:31:15;;;;;;;27.63;20.27;;;3.90;73.40;;;;;;4967767;28;20038;-81
2021/12/09 04:33:42;;;;;;;29.67;19.40;;;3.90;73.50;;;;;;4972286;28;20121;-81
2021/12/09 04:36:08;;;;;;;26.40;19.87;;;3.90;73.40;;;;;;4982374;28;20434;-81
2021/12/09 04:38:34;;;;;;;30.83;21.63;;;3.90;73.50;;;;;;4997571;28;20073;-81
2021/12/09 04:41:00;;;;;;;23.67;19.20;;;3.90;73.50;;;;;;4996625;28;20378;-81
2021/12/09 04:43:26;;;;;;;27.33;18.90;;;3.90;73.50;;;;;;4984459;28;20108;-81
2021/12/09 04:45:52;;;;;;;27.27;20.40;;;4.00;73.80;;;;;;4980380;28;20425;-81
2021/12/09 04:48:17;;;;;;;31.30;20.77;;;4.00;73.70;;;;;;4993280;28;20126;-81
2021/12/09 04:50:44;;;;;;;32.47;21.33;;;4.00;73.40;;;;;;4997502;28;20022;-81
2021/12/09 04:53:10;;;;;;;35.87;22.90;;;4.00;73.70;;;;;;4963045;28;20482;-81
2021/12/09 04:55:36;;;;;;;34.33;24.57;;;4.00;73.70;;;;;;4984109;28;20073;-81
2021/12/09 04:58:02;;;;;;;34.90;22.07;;;4.00;73.50;;;;;;4983254;28;20030;-81
2021/12/09 05:00:31;;;;;;;35.43;24.23;;;4.10;73.40;;;;;;4964529;28;20027;-81
2021/12/09 05:03:29;;;;;;;37.43;24.63;;;4.10;73.40;;;;;;4959753;28;20033;-81
2021/12/09 05:05:51;;;;;;;33.43;25.03;;;4.10;73.40;;;;;;4981551;28;20050;-81
2021/12/09 05:08:20;;;;;;;32.23;24.63;;;4.10;73.30;;;;;;4972603;28;20030;-81
2021/12/09 05:11:12;;;;;;;31.60;23.47;;;4.10;73.30;;;;;;4991811;28;20049;-81
2021/12/09 05:13:39;;;;;;;31.38;24.08;;;4.00;73.20;;;;;;4968154;28;20026;-81
2021/12/09 05:16:07;;;;;;;30.60;22.73;;;4.00;73.20;;;;;;4982456;28;20031;-81
2021/12/09 05:18:35;;;;;;;33.37;24.13;;;4.00;73.40;;;;;;4985665;28;20030;-81
2021/12/09 05:21:02;;;;;;;36.97;27.37;;;4.00;73.40;;;;;;4970824;28;20031;-81
2021/12/09 05:23:28;;;;;;;34.97;25.23;;;4.00;73.20;;;;;;4988377;28;20467;-81
2021/12/09 05:25:54;;;;;;;36.80;27.47;;;4.00;73.40;;;;;;4985659;28;20037;-81
2021/12/09 05:28:29;;;;;;;35.97;24.67;;;4.00;73.60;;;;;;4994937;28;20022;-81
2021/12/09 05:33:39;;;;;;;33.07;24.97;;;4.00;73.80;;;;;;4988262;28;20034;-81
2021/12/09 05:36:05;;;;;;;33.83;25.57;;;4.00;73.70;;;;;;4972584;28;20022;-81
2021/12/09 05:38:31;;;;;;;36.80;25.60;;;4.00;73.60;;;;;;4965393;28;20054;-81
2021/12/09 05:40:56;;;;;;;34.23;25.27;;;4.00;73.50;;;;;;4958698;28;20035;-81
2021/12/09 05:43:23;;;;;;;39.17;26.47;;;4.00;73.50;;;;;;4968888;28;20022;-81
2021/12/09 05:45:49;;;;;;;35.23;27.73;;;4.00;73.50;;;;;;4980158;28;20049;-81
2021/12/09 05:48:16;;;;;;;31.40;25.17;;;4.00;73.50;;;;;;4984779;28;20065;-81
2021/12/09 05:50:42;;;;;;;35.27;26.10;;;4.00;73.80;;;;;;5002888;28;20102;-81
2021/12/09 05:53:08;;;;;;;34.27;24.60;;;4.10;73.70;;;;;;4991653;28;20060;-81
2021/12/09 05:55:34;;;;;;;41.77;27.70;;;4.00;73.50;;;;;;4964080;28;20050;-80
2021/12/09 05:58:00;;;;;;;37.97;27.40;;;4.00;73.60;;;;;;4974694;28;20030;-81
2021/12/09 06:00:27;;;;;;;35.63;26.60;;;4.00;73.70;;;;;;4967569;28;20113;-81
2021/12/09 06:02:53;;;;;;;34.93;26.97;;;4.00;74.00;;;;;;4968115;28;20096;-81
2021/12/09 06:05:18;;;;;;;39.67;27.30;;;4.00;73.80;;;;;;4974110;28;20026;-81
2021/12/09 06:07:45;;;;;;;36.67;26.10;;;4.00;74.00;;;;;;4982867;28;20038;-81
2021/12/09 06:10:11;;;;;;;38.53;27.93;;;4.00;74.00;;;;;;4973665;28;20037;-81
2021/12/09 06:12:37;;;;;;;37.90;27.50;;;4.00;73.80;;;;;;4998044;28;20030;-81
2021/12/09 06:15:05;;;;;;;39.07;28.37;;;4.00;73.90;;;;;;4985274;28;20030;-81
2021/12/09 06:17:31;;;;;;;38.17;29.80;;;4.00;74.00;;;;;;4981884;28;20029;-81
2021/12/09 06:19:56;;;;;;;44.93;32.30;;;4.10;74.10;;;;;;4960015;28;20027;-81
2021/12/09 06:22:22;;;;;;;49.47;34.80;;;4.10;74.10;;;;;;4977420;28;20389;-81
2021/12/09 06:24:48;;;;;;;49.27;36.10;;;4.10;74.20;;;;;;4959771;28;20367;-81
2021/12/09 06:27:14;;;;;;;48.07;34.57;;;4.10;74.30;;;;;;4977205;28;20105;-81
2021/12/09 06:29:40;;;;;;;40.57;32.30;;;4.10;74.40;;;;;;4974981;28;20126;-81
2021/12/09 06:32:06;;;;;;;45.47;32.67;;;4.20;74.40;;;;;;4979395;28;20023;-81
2021/12/09 06:34:33;;;;;;;44.80;30.73;;;4.20;74.80;;;;;;4977774;28;20030;-81
2021/12/09 06:36:59;;;;;;;48.77;32.60;;;4.20;74.20;;;;;;4980119;28;20478;-81
2021/12/09 06:39:25;;;;;;;43.23;29.40;;;4.20;74.10;;;;;;4978811;28;20081;-81
2021/12/09 06:41:51;;;;;;;46.57;30.90;;;4.20;74.20;;;;;;4996500;28;20037;-81
2021/12/09 06:44:17;;;;;;;45.23;31.13;;;4.20;74.10;;;;;;4963903;28;20347;-81
2021/12/09 06:46:43;;;;;;;46.30;32.80;;;4.20;74.10;;;;;;4962859;28;20062;-81
2021/12/09 06:49:08;;;;;;;48.30;32.33;;;4.20;74.00;;;;;;4959120;28;20026;-81
2021/12/09 06:51:35;;;;;;;42.37;30.87;;;4.20;74.10;;;;;;4995662;28;20085;-81
2021/12/09 06:54:01;;;;;;;43.97;31.87;;;4.20;74.20;;;;;;4996243;28;20094;-81
2021/12/09 06:56:30;;;;;;;40.93;29.73;;;4.10;74.10;;;;;;4978742;28;20142;-81
2021/12/09 06:58:56;;;;;;;40.60;29.27;;;4.10;74.60;;;;;;4960961;28;20474;-81
2021/12/09 07:01:22;;;;;;;39.83;29.57;;;4.20;74.90;;;;;;4977688;28;20653;-81
2021/12/09 07:03:47;;;;;;;48.70;34.67;;;4.20;74.80;;;;;;4994431;28;20030;-81
2021/12/09 07:06:14;;;;;;;61.13;38.40;;;4.30;74.70;;;;;;4958894;28;20061;-81
2021/12/09 07:08:45;;;;;;;76.60;47.47;;;4.30;74.70;;;;;;4959219;28;20031;-81
2021/12/09 07:11:13;;;;;;;45.80;34.03;;;4.40;74.70;;;;;;4976970;28;20027;-81
2021/12/09 07:13:39;;;;;;;39.30;29.13;;;4.30;74.50;;;;;;4959492;28;20239;-81
2021/12/09 07:16:05;;;;;;;43.13;31.50;;;4.40;74.30;;;;;;4976523;28;20023;-81
2021/12/09 07:18:32;;;;;;;42.23;31.60;;;4.30;74.20;;;;;;4971772;28;20478;-81
2021/12/09 07:20:58;;;;;;;41.77;31.10;;;4.30;74.30;;;;;;4983578;28;20548;-81
2021/12/09 07:23:24;;;;;;;44.47;32.67;;;4.30;74.50;;;;;;4959387;28;20109;-81
2021/12/09 07:25:50;;;;;;;43.07;31.20;;;4.30;74.60;;;;;;4976302;28;20066;-81
2021/12/09 07:28:17;;;;;;;33.87;25.27;;;4.30;74.90;;;;;;4959286;28;20035;-81
2021/12/09 07:30:43;;;;;;;44.97;31.70;;;4.40;75.00;;;;;;4977493;28;20478;-81
2021/12/09 07:33:09;;;;;;;49.90;34.03;;;4.50;74.80;;;;;;4979503;28;20034;-81
2021/12/09 07:35:35;;;;;;;44.67;32.17;;;4.50;74.60;;;;;;4958867;28;20033;-80
2021/12/09 07:38:02;;;;;;;53.27;32.23;;;4.50;74.50;;;;;;4970446;28;20053;-80
2021/12/09 07:40:28;;;;;;;41.67;30.97;;;4.50;74.40;;;;;;4991233;28;20478;-81
2021/12/09 07:42:54;;;;;;;42.20;30.00;;;4.50;74.50;;;;;;4992860;28;20378;-80
2021/12/09 07:45:21;;;;;;;37.70;28.63;;;4.50;74.60;;;;;;4988742;28;20022;-81
2021/12/09 07:47:47;;;;;;;59.27;36.57;;;4.50;74.50;;;;;;4983023;28;20034;-80
2021/12/09 07:50:18;;;;;;;49.07;33.63;;;4.50;74.40;;;;;;4966789;28;20501;-80
2021/12/09 07:52:47;;;;;;;48.13;34.00;;;4.50;74.60;;;;;;4973882;28;20034;-80
2021/12/09 07:55:15;;;;;;;54.57;35.80;;;4.50;74.50;;;;;;4963999;28;20043;-80
2021/12/09 07:57:42;;;;;;;49.93;35.27;;;4.50;74.40;;;;;;4983519;28;20371;-80
2021/12/09 08:00:12;;;;;;;51.10;34.20;;;4.50;74.40;;;;;;4976499;28;20540;-80
2021/12/09 08:02:43;;;;;;;53.43;33.97;;;4.50;74.50;;;;;;4975583;28;20030;-80
2021/12/09 08:05:11;;;;;;;55.37;36.83;;;4.50;74.40;;;;;;4990071;28;20026;-80
2021/12/09 08:07:37;;;;;;;54.53;37.33;;;4.50;74.40;;;;;;4993480;28;20027;-80
2021/12/09 08:10:04;;;;;;;45.70;33.13;;;4.40;74.40;;;;;;4967039;28;20559;-81
2021/12/09 08:12:30;;;;;;;53.03;34.70;;;4.40;74.60;;;;;;4962610;28;20113;-81
2021/12/09 08:14:57;;;;;;;56.77;40.80;;;4.40;74.60;;;;;;4962867;28;20035;-80
2021/12/09 08:17:44;;;;;;;63.73;43.90;;;4.40;74.60;;;;;;4983481;28;20060;-81
2021/12/09 08:20:16;;;;;;;53.93;34.10;;;4.50;74.80;;;;;;4984542;28;20422;-81
2021/12/09 08:22:44;;;;;;;44.93;31.73;;;4.50;74.80;;;;;;4973453;28;20029;-81
2021/12/09 08:25:13;;;;;;;43.17;30.90;;;4.50;74.80;;;;;;4986347;28;20031;-81
2021/12/09 08:27:42;;;;;;;45.63;34.03;;;4.50;75.00;;;;;;4962188;28;20170;-80
2021/12/09 08:30:12;;;;;;;44.40;33.10;;;4.50;74.90;;;;;;4979655;28;20028;-81
2021/12/09 08:32:37;;;;;;;41.57;32.07;;;4.50;75.00;;;;;;4965030;28;20034;-80
2021/12/09 08:35:03;;;;;;;44.80;32.43;;;4.50;74.70;;;;;;4963127;28;20524;-81
2021/12/09 08:37:29;;;;;;;48.13;32.23;;;4.50;75.00;;;;;;4978113;28;20027;-81
2021/12/09 08:39:56;;;;;;;45.70;35.00;;;4.60;75.00;;;;;;4990937;28;20030;-80
2021/12/09 08:42:22;;;;;;;50.03;36.83;;;4.60;74.80;;;;;;4980794;28;20098;-81
2021/12/09 08:44:47;;;;;;;51.20;36.13;;;4.70;74.90;;;;;;4966750;28;20510;-81
2021/12/09 08:47:13;;;;;;;55.23;38.47;;;4.70;74.80;;;;;;4969640;28;20125;-81
2021/12/09 08:49:39;;;;;;;54.60;36.60;;;4.70;74.80;;;;;;4974879;28;20113;-80
2021/12/09 08:52:05;;;;;;;56.57;38.60;;;4.80;74.70;;;;;;4975109;28;20026;-80
2021/12/09 08:54:31;;;;;;;69.17;43.03;;;4.80;74.70;;;;;;4965441;28;20035;-81
2021/12/09 08:56:58;;;;;;;81.80;48.47;;;4.70;74.60;;;;;;4991156;28;20047;-81
2021/12/09 08:59:25;;;;;;;56.67;38.53;;;4.80;74.70;;;;;;4967025;28;20057;-80
2021/12/09 09:01:51;;;;;;;46.40;33.90;;;4.80;74.50;;;;;;4965576;28;20035;-80
2021/12/09 09:04:18;;;;;;;53.03;36.73;;;4.80;74.70;;;;;;4962799;28;20073;-80
2021/12/09 09:06:55;;;;;;;50.33;36.17;;;4.90;74.70;;;;;;4964259;28;20026;-80
2021/12/09 09:09:26;;;;;;;56.77;38.63;;;4.90;74.90;;;;;;4976900;28;20031;-81
2021/12/09 09:11:54;;;;;;;54.43;38.50;;;4.90;75.20;;;;;;4989346;28;20078;-81
2021/12/09 09:14:20;;;;;;;53.97;40.50;;;5.00;74.60;;;;;;4972580;28;20030;-81
2021/12/09 09:16:46;;;;;;;58.90;42.10;;;5.00;74.60;;;;;;4982863;28;20033;-81
2021/12/09 09:19:13;;;;;;;58.20;40.83;;;5.00;74.60;;;;;;4972300;28;20474;-81
2021/12/09 09:21:39;;;;;;;58.13;39.13;;;5.00;74.50;;;;;;4985036;28;20025;-81
2021/12/09 09:24:06;;;;;;;61.20;40.70;;;5.10;74.50;;;;;;4964287;28;20078;-81
2021/12/09 09:26:32;;;;;;;60.77;39.47;;;5.00;74.50;;;;;;4957759;28;20457;-80
2021/12/09 09:28:58;;;;;;;57.93;37.07;;;5.10;74.50;;;;;;4975871;28;20109;-80
2021/12/09 09:31:28;;;;;;;48.03;35.77;;;5.10;74.60;;;;;;4966389;28;20118;-81
2021/12/09 09:33:55;;;;;;;50.77;38.13;;;5.10;74.50;;;;;;4959311;28;20033;-81
2021/12/09 09:36:21;;;;;;;51.67;36.70;;;5.10;74.30;;;;;;4989500;28;20022;-80
2021/12/09 09:38:47;;;;;;;59.97;39.37;;;5.10;74.30;;;;;;4970757;28;20501;-81
2021/12/09 09:41:17;;;;;;;77.83;50.67;;;5.10;74.50;;;;;;4960554;28;20033;-79
2021/12/09 09:46:20;;;;;;;59.30;42.43;;;5.10;74.50;;;;;;4979426;28;20031;-81
2021/12/09 09:48:49;;;;;;;57.90;43.08;;;5.10;74.60;;;;;;4953297;28;20034;-82
2021/12/09 09:51:17;;;;;;;53.77;40.80;;;5.10;74.70;;;;;;4987216;28;20065;-80
2021/12/09 09:53:43;;;;;;;58.17;39.90;;;5.10;74.70;;;;;;4959174;28;20068;-80
2021/12/09 09:56:16;;;;;;;52.97;37.53;;;5.10;74.60;;;;;;4984872;28;20574;-80
2021/12/09 09:58:44;;;;;;;54.58;39.00;;;5.10;74.50;;;;;;4977080;28;20414;-81
2021/12/09 10:01:10;;;;;;;52.37;37.27;;;5.20;74.60;;;;;;4978061;28;20034;-81
2021/12/09 10:03:44;;;;;;;50.00;37.47;;;5.20;74.60;;;;;;4979522;28;20537;-80
2021/12/09 10:06:11;;;;;;;53.97;39.03;;;5.20;74.50;;;;;;4971662;28;20053;-80
2021/12/09 10:08:38;;;;;;;55.53;41.00;;;5.30;74.30;;;;;;4981702;28;20113;-81
2021/12/09 10:11:05;;;;;;;56.80;43.27;;;5.30;74.30;;;;;;4965206;28;20037;-80
2021/12/09 10:13:35;;;;;;;67.87;46.67;;;5.30;74.40;;;;;;4981597;28;20077;-81
2021/12/09 10:16:05;;;;;;;59.13;43.53;;;5.40;74.50;;;;;;4959905;28;20035;-80
2021/12/09 10:18:42;;;;;;;62.07;44.27;;;5.40;74.50;;;;;;4966099;28;20161;-80
2021/12/09 10:21:09;;;;;;;64.10;45.03;;;5.40;74.40;;;;;;4961164;28;20054;-80
2021/12/09 10:23:48;;;;;;;72.43;47.30;;;5.40;74.30;;;;;;4975814;28;20023;-80
2021/12/09 10:26:18;;;;;;;64.97;45.03;;;5.40;74.10;;;;;;4972253;28;20521;-81
2021/12/09 10:29:08;;;;;;;60.20;42.43;;;5.40;74.10;;;;;;4979047;28;20088;-81
2021/12/09 10:31:43;;;;;;;52.90;38.17;;;5.40;74.10;;;;;;4963706;28;20219;-81
2021/12/09 10:34:59;;;;;;;44.83;33.03;;;5.40;74.30;;;;;;4961895;28;20027;-81
2021/12/09 10:37:29;;;;;;;50.83;35.27;;;5.40;74.20;;;;;;4967026;28;20057;-81
2021/12/09 10:40:25;;;;;;;50.93;36.07;;;5.50;74.10;;;;;;4957358;28;20092;-81
2021/12/09 10:43:01;;;;;;;84.13;58.37;;;5.50;74.00;;;;;;4967768;28;20442;-81
2021/12/09 10:45:28;;;;;;;56.37;40.03;;;5.60;74.30;;;;;;4979186;28;20612;-81
2021/12/09 10:51:03;;;;;;;53.40;37.73;;;5.60;74.00;;;;;;4962317;28;20023;-81
2021/12/09 10:56:10;;;;;;;49.27;36.00;;;5.70;74.10;;;;;;4978123;28;20050;-80
2021/12/09 10:58:39;;;;;;;51.83;36.23;;;5.70;74.10;;;;;;4968737;28;20098;-81
2021/12/09 11:01:07;;;;;;;47.13;35.47;;;5.70;74.00;;;;;;4980733;28;20022;-81
2021/12/09 11:03:35;;;;;;;59.60;41.53;;;5.70;74.00;;;;;;4962930;28;20023;-81
2021/12/09 11:06:05;;;;;;;63.60;44.43;;;5.70;73.90;;;;;;4978779;28;20035;-80
2021/12/09 11:08:41;;;;;;;70.70;47.40;;;5.70;73.90;;;;;;4963546;28;20034;-81
2021/12/09 11:11:08;;;;;;;55.90;41.60;;;5.70;73.90;;;;;;4973823;28;20125;-81
2021/12/09 11:13:47;;;;;;;53.23;40.57;;;5.70;74.00;;;;;;4960834;28;20030;-81
2021/12/09 11:16:23;;;;;;;49.03;36.07;;;5.60;73.80;;;;;;4976293;28;20058;-81
2021/12/09 11:18:50;;;;;;;47.37;35.70;;;5.60;73.90;;;;;;4965914;28;20057;-81
2021/12/09 11:21:25;;;;;;;46.33;33.77;;;5.60;74.20;;;;;;4984673;28;20029;-80
2021/12/09 11:24:05;;;;;;;54.03;35.10;;;5.60;74.20;;;;;;4978252;28;20030;-81
2021/12/09 11:29:42;;;;;;;46.83;30.97;;;5.70;74.00;;;;;;4903633;29;20039;-81
2021/12/09 11:35:17;;;;;;;38.20;28.20;;;5.80;74.00;;;;;;4954173;28;20041;-80
2021/12/09 11:37:56;;;;;;;35.07;27.40;;;5.80;73.90;;;;;;4983878;28;20026;-80
2021/12/09 11:43:01;;;;;;;22.63;18.77;;;5.90;73.90;;;;;;4977428;28;20042;-79
2021/12/09 11:45:30;;;;;;;24.40;19.70;;;5.90;73.80;;;;;;4980194;28;20030;-80
2021/12/09 11:47:57;;;;;;;25.57;20.37;;;5.90;73.90;;;;;;4976666;28;20027;-80
2021/12/09 11:50:27;;;;;;;26.47;20.63;;;5.90;73.90;;;;;;4980945;28;20113;-80
2021/12/09 11:52:54;;;;;;;20.30;17.47;;;5.90;74.00;;;;;;4967037;28;20062;-80
2021/12/09 11:55:27;;;;;;;24.83;18.70;;;6.00;73.80;;;;;;4967226;28;20046;-80
2021/12/09 11:58:02;;;;;;;21.83;17.33;;;6.00;73.70;;;;;;4979366;28;20050;-80
2021/12/09 12:14:58;;;;;;;30.43;24.00;;;6.10;73.70;;;;;;4978809;28;20065;-80
2021/12/09 12:17:32;;;;;;;20.20;15.13;;;6.10;73.60;;;;;;4969574;28;20058;-81
2021/12/09 12:20:34;;;;;;;23.50;18.33;;;6.10;73.80;;;;;;4978533;28;20037;-80
2021/12/09 12:23:18;;;;;;;26.43;19.50;;;6.10;73.60;;;;;;4961889;28;20479;-80
2021/12/09 12:31:19;;;;;;;37.90;26.53;;;6.10;73.50;;;;;;4983541;28;20077;-81
2021/12/09 12:39:59;;;;;;;36.87;25.93;;;6.10;73.70;;;;;;4975115;28;20030;-83
2021/12/09 12:51:28;;;;;;;51.13;33.87;;;6.00;73.80;;;;;;4974169;28;20035;-81
2021/12/09 12:53:57;;;;;;;49.53;34.80;;;6.00;73.60;;;;;;4980109;28;20482;-81
2021/12/09 12:56:32;;;;;;;55.33;38.60;;;6.00;73.60;;;;;;4984000;28;20058;-81
2021/12/09 12:59:08;;;;;;;55.03;37.07;;;6.00;73.60;;;;;;4966854;28;20026;-81
2021/12/09 13:01:42;;;;;;;55.90;37.63;;;5.90;73.60;;;;;;4967891;28;20077;-81
2021/12/09 13:10:28;;;;;;;47.87;33.07;;;5.90;73.50;;;;;;4976526;28;20078;-81
2021/12/09 13:13:31;;;;;;;48.13;33.53;;;5.90;74.00;;;;;;4964594;28;20033;-81
2021/12/09 13:19:29;;;;;;;41.37;30.23;;;5.90;73.60;;;;;;4975248;28;20359;-80
2021/12/09 13:22:02;;;;;;;39.73;30.03;;;5.90;73.50;;;;;;4960935;28;20115;-81
2021/12/09 13:27:24;;;;;;;44.87;30.97;;;5.90;73.50;;;;;;4974449;28;20030;-80
2021/12/09 13:30:17;;;;;;;48.70;34.80;;;5.90;73.60;;;;;;4962296;28;20084;-80
2021/12/09 13:49:50;;;;;;;54.00;37.10;;;5.80;73.70;;;;;;4977026;28;20038;-81
2021/12/09 13:55:05;;;;;;;50.17;35.17;;;5.70;73.60;;;;;;4979121;28;20165;-80
2021/12/09 13:57:36;;;;;;;55.70;36.27;;;5.70;73.60;;;;;;4982619;28;20075;-80
2021/12/09 14:00:27;;;;;;;51.10;35.27;;;5.70;73.70;;;;;;4958976;28;20034;-81
2021/12/09 14:03:07;;;;;;;47.20;35.93;;;5.70;73.80;;;;;;4946862;28;20038;-81
2021/12/09 14:05:51;;;;;;;47.40;34.20;;;5.70;73.80;;;;;;4978219;28;20022;-81
2021/12/09 14:08:34;;;;;;;47.57;33.97;;;5.70;73.70;;;;;;4963669;28;20031;-80
2021/12/09 14:11:06;;;;;;;47.85;31.38;;;5.70;73.70;;;;;;4983869;28;20037;-81
2021/12/09 14:13:35;;;;;;;49.07;32.57;;;5.70;73.80;;;;;;4977659;28;20054;-81